sensor_id;sensor_type;location;lat;lon;timestamp;P1;durP1;ratioP1;P2;durP2;ratioP2
80481;SDS011;69797;43.864;21.410;2023-06-10T00:00:28;10.73;;;4.82;;
80481;SDS011;69797;43.864;21.410;2023-06-10T00:02:58;7.80;;;4.22;;
80481;SDS011;69797;43.864;21.410;2023-06-10T00:05:26;8.23;;;4.60;;
80481;SDS011;69797;43.864;21.410;2023-06-10T00:07:56;9.95;;;5.32;;
80481;SDS011;69797;43.864;21.410;2023-06-10T00:10:23;10.32;;;5.10;;
80481;SDS011;69797;43.864;21.410;2023-06-10T00:12:51;8.38;;;4.72;;
80481;SDS011;69797;43.864;21.410;2023-06-10T00:15:18;7.72;;;4.80;;
80481;SDS011;69797;43.864;21.410;2023-06-10T00:17:45;6.67;;;4.40;;
80481;SDS011;69797;43.864;21.410;2023-06-10T00:20:12;9.80;;;4.75;;
80481;SDS011;69797;43.864;21.410;2023-06-10T00:22:39;9.75;;;4.72;;
80481;SDS011;69797;43.864;21.410;2023-06-10T00:25:08;6.93;;;4.60;;
80481;SDS011;69797;43.864;21.410;2023-06-10T00:27:37;7.85;;;4.65;;
80481;SDS011;69797;43.864;21.410;2023-06-10T00:30:04;7.57;;;5.47;;
80481;SDS011;69797;43.864;21.410;2023-06-10T00:32:33;7.80;;;4.88;;
80481;SDS011;69797;43.864;21.410;2023-06-10T00:35:03;7.05;;;4.43;;
80481;SDS011;69797;43.864;21.410;2023-06-10T00:37:32;6.53;;;4.53;;
80481;SDS011;69797;43.864;21.410;2023-06-10T00:40:02;7.55;;;4.78;;
80481;SDS011;69797;43.864;21.410;2023-06-10T00:42:30;7.70;;;4.20;;
80481;SDS011;69797;43.864;21.410;2023-06-10T00:44:57;7.50;;;4.32;;
80481;SDS011;69797;43.864;21.410;2023-06-10T00:47:23;9.52;;;4.10;;
80481;SDS011;69797;43.864;21.410;2023-06-10T00:49:52;7.03;;;3.97;;
80481;SDS011;69797;43.864;21.410;2023-06-10T00:52:21;9.18;;;4.20;;
80481;SDS011;69797;43.864;21.410;2023-06-10T00:54:50;9.50;;;4.00;;
80481;SDS011;69797;43.864;21.410;2023-06-10T00:57:17;6.50;;;3.80;;
80481;SDS011;69797;43.864;21.410;2023-06-10T00:59:46;7.70;;;4.20;;
80481;SDS011;69797;43.864;21.410;2023-06-10T01:02:14;6.70;;;3.47;;
80481;SDS011;69797;43.864;21.410;2023-06-10T01:04:42;6.82;;;4.43;;
80481;SDS011;69797;43.864;21.410;2023-06-10T01:07:25;6.23;;;4.40;;
80481;SDS011;69797;43.864;21.410;2023-06-10T01:10:11;6.55;;;4.22;;
80481;SDS011;69797;43.864;21.410;2023-06-10T01:12:58;8.65;;;4.82;;
80481;SDS011;69797;43.864;21.410;2023-06-10T01:15:32;8.45;;;4.47;;
80481;SDS011;69797;43.864;21.410;2023-06-10T01:18:03;12.55;;;4.65;;
80481;SDS011;69797;43.864;21.410;2023-06-10T01:20:37;5.77;;;3.97;;
80481;SDS011;69797;43.864;21.410;2023-06-10T01:23:07;9.13;;;5.18;;
80481;SDS011;69797;43.864;21.410;2023-06-10T01:25:42;7.30;;;4.60;;
80481;SDS011;69797;43.864;21.410;2023-06-10T01:28:33;8.00;;;4.80;;
80481;SDS011;69797;43.864;21.410;2023-06-10T01:31:20;9.65;;;4.80;;
80481;SDS011;69797;43.864;21.410;2023-06-10T01:34:00;7.87;;;4.83;;
80481;SDS011;69797;43.864;21.410;2023-06-10T01:36:29;8.43;;;5.13;;
80481;SDS011;69797;43.864;21.410;2023-06-10T01:38:58;8.55;;;5.13;;
80481;SDS011;69797;43.864;21.410;2023-06-10T01:41:26;9.82;;;5.45;;
80481;SDS011;69797;43.864;21.410;2023-06-10T01:43:54;11.63;;;5.53;;
80481;SDS011;69797;43.864;21.410;2023-06-10T01:46:21;7.90;;;4.97;;
80481;SDS011;69797;43.864;21.410;2023-06-10T01:48:49;7.80;;;4.88;;
80481;SDS011;69797;43.864;21.410;2023-06-10T01:51:16;8.70;;;4.80;;
80481;SDS011;69797;43.864;21.410;2023-06-10T01:53:45;7.50;;;4.60;;
80481;SDS011;69797;43.864;21.410;2023-06-10T01:56:11;6.47;;;4.35;;
80481;SDS011;69797;43.864;21.410;2023-06-10T01:58:44;6.97;;;4.60;;
80481;SDS011;69797;43.864;21.410;2023-06-10T02:01:13;7.10;;;3.80;;
80481;SDS011;69797;43.864;21.410;2023-06-10T02:03:41;8.77;;;4.43;;
80481;SDS011;69797;43.864;21.410;2023-06-10T02:06:13;8.15;;;3.88;;
80481;SDS011;69797;43.864;21.410;2023-06-10T02:08:47;6.32;;;4.15;;
80481;SDS011;69797;43.864;21.410;2023-06-10T02:11:14;6.33;;;4.50;;
80481;SDS011;69797;43.864;21.410;2023-06-10T02:13:41;6.88;;;4.03;;
80481;SDS011;69797;43.864;21.410;2023-06-10T02:16:07;7.40;;;4.40;;
80481;SDS011;69797;43.864;21.410;2023-06-10T02:18:35;6.63;;;4.25;;
80481;SDS011;69797;43.864;21.410;2023-06-10T02:21:06;7.85;;;4.50;;
80481;SDS011;69797;43.864;21.410;2023-06-10T02:23:34;9.27;;;4.30;;
80481;SDS011;69797;43.864;21.410;2023-06-10T02:26:01;7.95;;;5.47;;
80481;SDS011;69797;43.864;21.410;2023-06-10T02:28:28;5.88;;;4.25;;
80481;SDS011;69797;43.864;21.410;2023-06-10T02:30:55;6.70;;;4.40;;
80481;SDS011;69797;43.864;21.410;2023-06-10T02:33:23;10.95;;;4.38;;
80481;SDS011;69797;43.864;21.410;2023-06-10T02:35:50;7.43;;;4.43;;
80481;SDS011;69797;43.864;21.410;2023-06-10T02:38:17;8.50;;;4.10;;
80481;SDS011;69797;43.864;21.410;2023-06-10T02:40:47;6.55;;;4.20;;
80481;SDS011;69797;43.864;21.410;2023-06-10T02:43:14;7.85;;;4.47;;
80481;SDS011;69797;43.864;21.410;2023-06-10T02:45:40;8.23;;;4.50;;
80481;SDS011;69797;43.864;21.410;2023-06-10T02:48:07;8.87;;;4.53;;
80481;SDS011;69797;43.864;21.410;2023-06-10T02:50:38;8.60;;;4.18;;
80481;SDS011;69797;43.864;21.410;2023-06-10T02:53:06;5.88;;;4.60;;
80481;SDS011;69797;43.864;21.410;2023-06-10T02:55:33;7.53;;;4.50;;
80481;SDS011;69797;43.864;21.410;2023-06-10T02:58:01;9.27;;;4.32;;
80481;SDS011;69797;43.864;21.410;2023-06-10T03:00:29;9.87;;;4.80;;
80481;SDS011;69797;43.864;21.410;2023-06-10T03:02:57;8.68;;;4.68;;
80481;SDS011;69797;43.864;21.410;2023-06-10T03:05:24;10.02;;;4.38;;
80481;SDS011;69797;43.864;21.410;2023-06-10T03:07:51;8.85;;;4.68;;
80481;SDS011;69797;43.864;21.410;2023-06-10T03:10:18;7.85;;;4.70;;
80481;SDS011;69797;43.864;21.410;2023-06-10T03:12:45;7.03;;;5.03;;
80481;SDS011;69797;43.864;21.410;2023-06-10T03:15:11;8.32;;;4.97;;
80481;SDS011;69797;43.864;21.410;2023-06-10T03:17:38;6.95;;;4.65;;
80481;SDS011;69797;43.864;21.410;2023-06-10T03:20:08;7.40;;;4.82;;
80481;SDS011;69797;43.864;21.410;2023-06-10T03:22:36;6.65;;;4.65;;
80481;SDS011;69797;43.864;21.410;2023-06-10T03:25:04;7.03;;;4.30;;
80481;SDS011;69797;43.864;21.410;2023-06-10T03:27:35;7.53;;;4.57;;
80481;SDS011;69797;43.864;21.410;2023-06-10T03:30:02;7.18;;;4.13;;
80481;SDS011;69797;43.864;21.410;2023-06-10T03:32:29;7.55;;;4.65;;
80481;SDS011;69797;43.864;21.410;2023-06-10T03:34:56;6.00;;;4.30;;
80481;SDS011;69797;43.864;21.410;2023-06-10T03:37:23;8.43;;;4.20;;
80481;SDS011;69797;43.864;21.410;2023-06-10T03:39:51;6.75;;;4.40;;
80481;SDS011;69797;43.864;21.410;2023-06-10T03:42:18;8.07;;;3.97;;
80481;SDS011;69797;43.864;21.410;2023-06-10T03:44:44;8.50;;;4.07;;
80481;SDS011;69797;43.864;21.410;2023-06-10T03:47:11;6.95;;;3.75;;
80481;SDS011;69797;43.864;21.410;2023-06-10T03:49:39;10.33;;;3.70;;
80481;SDS011;69797;43.864;21.410;2023-06-10T03:52:06;8.15;;;4.07;;
80481;SDS011;69797;43.864;21.410;2023-06-10T03:54:36;7.07;;;4.40;;
80481;SDS011;69797;43.864;21.410;2023-06-10T03:57:06;7.30;;;3.97;;
80481;SDS011;69797;43.864;21.410;2023-06-10T03:59:32;7.35;;;4.93;;
80481;SDS011;69797;43.864;21.410;2023-06-10T04:01:59;5.93;;;3.70;;
80481;SDS011;69797;43.864;21.410;2023-06-10T04:04:27;7.40;;;4.25;;
80481;SDS011;69797;43.864;21.410;2023-06-10T04:06:54;8.90;;;4.55;;
80481;SDS011;69797;43.864;21.410;2023-06-10T04:09:21;9.50;;;4.10;;
80481;SDS011;69797;43.864;21.410;2023-06-10T04:11:49;8.02;;;4.00;;
80481;SDS011;69797;43.864;21.410;2023-06-10T04:14:15;6.40;;;2.70;;
80481;SDS011;69797;43.864;21.410;2023-06-10T04:16:42;5.20;;;3.13;;
80481;SDS011;69797;43.864;21.410;2023-06-10T04:19:09;8.88;;;3.65;;
80481;SDS011;69797;43.864;21.410;2023-06-10T04:21:36;7.45;;;3.45;;
80481;SDS011;69797;43.864;21.410;2023-06-10T04:24:03;6.93;;;3.75;;
80481;SDS011;69797;43.864;21.410;2023-06-10T04:26:30;6.97;;;3.27;;
80481;SDS011;69797;43.864;21.410;2023-06-10T04:29:00;7.45;;;3.72;;
80481;SDS011;69797;43.864;21.410;2023-06-10T04:31:27;6.55;;;4.05;;
80481;SDS011;69797;43.864;21.410;2023-06-10T04:33:54;8.82;;;4.90;;
80481;SDS011;69797;43.864;21.410;2023-06-10T04:36:21;7.95;;;4.38;;
80481;SDS011;69797;43.864;21.410;2023-06-10T04:38:48;10.07;;;4.77;;
80481;SDS011;69797;43.864;21.410;2023-06-10T04:41:14;8.25;;;4.18;;
80481;SDS011;69797;43.864;21.410;2023-06-10T04:43:41;9.13;;;4.47;;
80481;SDS011;69797;43.864;21.410;2023-06-10T04:46:08;8.70;;;4.95;;
80481;SDS011;69797;43.864;21.410;2023-06-10T04:48:36;8.32;;;4.90;;
80481;SDS011;69797;43.864;21.410;2023-06-10T04:51:04;5.53;;;3.33;;
80481;SDS011;69797;43.864;21.410;2023-06-10T04:53:33;4.70;;;3.40;;
80481;SDS011;69797;43.864;21.410;2023-06-10T04:56:00;6.50;;;3.90;;
80481;SDS011;69797;43.864;21.410;2023-06-10T04:58:27;7.93;;;4.18;;
80481;SDS011;69797;43.864;21.410;2023-06-10T05:00:53;10.88;;;4.60;;
80481;SDS011;69797;43.864;21.410;2023-06-10T05:03:20;8.47;;;4.23;;
80481;SDS011;69797;43.864;21.410;2023-06-10T05:05:50;6.22;;;3.90;;
80481;SDS011;69797;43.864;21.410;2023-06-10T05:08:19;8.40;;;4.82;;
80481;SDS011;69797;43.864;21.410;2023-06-10T05:10:46;7.82;;;3.70;;
80481;SDS011;69797;43.864;21.410;2023-06-10T05:13:13;6.78;;;3.65;;
80481;SDS011;69797;43.864;21.410;2023-06-10T05:15:40;5.80;;;4.40;;
80481;SDS011;69797;43.864;21.410;2023-06-10T05:18:10;8.45;;;4.60;;
80481;SDS011;69797;43.864;21.410;2023-06-10T05:20:40;5.90;;;4.13;;
80481;SDS011;69797;43.864;21.410;2023-06-10T05:23:06;5.95;;;4.32;;
80481;SDS011;69797;43.864;21.410;2023-06-10T05:25:33;5.55;;;4.22;;
80481;SDS011;69797;43.864;21.410;2023-06-10T05:28:01;5.23;;;3.93;;
80481;SDS011;69797;43.864;21.410;2023-06-10T05:30:33;7.90;;;3.60;;
80481;SDS011;69797;43.864;21.410;2023-06-10T05:32:59;7.05;;;4.00;;
80481;SDS011;69797;43.864;21.410;2023-06-10T05:35:26;7.38;;;4.40;;
80481;SDS011;69797;43.864;21.410;2023-06-10T05:37:53;6.72;;;3.75;;
80481;SDS011;69797;43.864;21.410;2023-06-10T05:40:20;7.33;;;3.80;;
80481;SDS011;69797;43.864;21.410;2023-06-10T05:42:47;5.35;;;3.63;;
80481;SDS011;69797;43.864;21.410;2023-06-10T05:45:16;5.97;;;4.40;;
80481;SDS011;69797;43.864;21.410;2023-06-10T05:47:43;6.05;;;3.33;;
80481;SDS011;69797;43.864;21.410;2023-06-10T05:50:10;8.57;;;3.67;;
80481;SDS011;69797;43.864;21.410;2023-06-10T05:52:39;5.33;;;4.50;;
80481;SDS011;69797;43.864;21.410;2023-06-10T05:55:09;4.75;;;3.88;;
80481;SDS011;69797;43.864;21.410;2023-06-10T05:57:37;8.27;;;3.75;;
80481;SDS011;69797;43.864;21.410;2023-06-10T06:00:06;5.78;;;4.20;;
80481;SDS011;69797;43.864;21.410;2023-06-10T06:02:37;8.05;;;5.20;;
80481;SDS011;69797;43.864;21.410;2023-06-10T06:05:04;9.20;;;4.50;;
80481;SDS011;69797;43.864;21.410;2023-06-10T06:07:34;5.95;;;4.32;;
80481;SDS011;69797;43.864;21.410;2023-06-10T06:10:01;6.88;;;5.05;;
80481;SDS011;69797;43.864;21.410;2023-06-10T06:12:27;6.68;;;4.70;;
80481;SDS011;69797;43.864;21.410;2023-06-10T06:14:54;6.55;;;4.75;;
80481;SDS011;69797;43.864;21.410;2023-06-10T06:17:21;5.33;;;4.83;;
80481;SDS011;69797;43.864;21.410;2023-06-10T06:19:48;6.78;;;4.97;;
80481;SDS011;69797;43.864;21.410;2023-06-10T06:22:15;5.50;;;4.57;;
80481;SDS011;69797;43.864;21.410;2023-06-10T06:24:51;6.20;;;5.28;;
80481;SDS011;69797;43.864;21.410;2023-06-10T06:27:18;7.30;;;4.97;;
80481;SDS011;69797;43.864;21.410;2023-06-10T06:29:44;5.80;;;4.77;;
80481;SDS011;69797;43.864;21.410;2023-06-10T06:32:12;6.25;;;5.65;;
80481;SDS011;69797;43.864;21.410;2023-06-10T06:34:38;10.82;;;7.53;;
80481;SDS011;69797;43.864;21.410;2023-06-10T06:37:05;7.88;;;6.40;;
80481;SDS011;69797;43.864;21.410;2023-06-10T06:39:32;7.75;;;6.95;;
80481;SDS011;69797;43.864;21.410;2023-06-10T06:41:59;7.37;;;5.97;;
80481;SDS011;69797;43.864;21.410;2023-06-10T06:44:26;6.32;;;5.72;;
80481;SDS011;69797;43.864;21.410;2023-06-10T06:46:52;8.07;;;5.80;;
80481;SDS011;69797;43.864;21.410;2023-06-10T06:49:22;6.97;;;5.60;;
80481;SDS011;69797;43.864;21.410;2023-06-10T06:51:54;7.10;;;4.70;;
80481;SDS011;69797;43.864;21.410;2023-06-10T06:54:20;8.10;;;5.80;;
80481;SDS011;69797;43.864;21.410;2023-06-10T06:56:47;9.95;;;5.95;;
80481;SDS011;69797;43.864;21.410;2023-06-10T06:59:17;6.13;;;5.20;;
80481;SDS011;69797;43.864;21.410;2023-06-10T07:01:45;5.38;;;4.88;;
80481;SDS011;69797;43.864;21.410;2023-06-10T07:04:14;5.85;;;5.10;;
80481;SDS011;69797;43.864;21.410;2023-06-10T07:06:41;7.73;;;5.17;;
80481;SDS011;69797;43.864;21.410;2023-06-10T07:09:08;7.53;;;5.30;;
80481;SDS011;69797;43.864;21.410;2023-06-10T07:11:35;6.88;;;4.60;;
80481;SDS011;69797;43.864;21.410;2023-06-10T07:14:02;8.27;;;4.32;;
80481;SDS011;69797;43.864;21.410;2023-06-10T07:16:30;5.90;;;5.07;;
80481;SDS011;69797;43.864;21.410;2023-06-10T07:18:57;9.00;;;6.20;;
80481;SDS011;69797;43.864;21.410;2023-06-10T07:21:24;6.95;;;6.05;;
80481;SDS011;69797;43.864;21.410;2023-06-10T07:23:54;9.15;;;6.68;;
80481;SDS011;69797;43.864;21.410;2023-06-10T07:26:23;6.85;;;5.90;;
80481;SDS011;69797;43.864;21.410;2023-06-10T07:28:52;7.97;;;6.40;;
80481;SDS011;69797;43.864;21.410;2023-06-10T07:31:18;7.17;;;6.23;;
80481;SDS011;69797;43.864;21.410;2023-06-10T07:33:46;7.35;;;6.63;;
80481;SDS011;69797;43.864;21.410;2023-06-10T07:36:13;7.75;;;6.28;;
80481;SDS011;69797;43.864;21.410;2023-06-10T07:38:40;9.23;;;7.07;;
80481;SDS011;69797;43.864;21.410;2023-06-10T07:41:08;9.52;;;6.65;;
80481;SDS011;69797;43.864;21.410;2023-06-10T07:43:37;7.33;;;6.50;;
80481;SDS011;69797;43.864;21.410;2023-06-10T07:46:04;8.02;;;6.60;;
80481;SDS011;69797;43.864;21.410;2023-06-10T07:48:32;7.32;;;6.38;;
80481;SDS011;69797;43.864;21.410;2023-06-10T07:50:58;7.25;;;6.55;;
80481;SDS011;69797;43.864;21.410;2023-06-10T07:53:28;7.10;;;6.40;;
80481;SDS011;69797;43.864;21.410;2023-06-10T07:55:54;8.97;;;6.73;;
80481;SDS011;69797;43.864;21.410;2023-06-10T07:58:21;7.22;;;6.63;;
80481;SDS011;69797;43.864;21.410;2023-06-10T08:00:48;9.02;;;6.55;;
80481;SDS011;69797;43.864;21.410;2023-06-10T08:03:15;7.38;;;6.78;;
80481;SDS011;69797;43.864;21.410;2023-06-10T08:05:42;7.70;;;7.00;;
80481;SDS011;69797;43.864;21.410;2023-06-10T08:08:09;7.80;;;7.20;;
80481;SDS011;69797;43.864;21.410;2023-06-10T08:10:36;7.55;;;6.22;;
80481;SDS011;69797;43.864;21.410;2023-06-10T08:13:03;7.78;;;7.00;;
80481;SDS011;69797;43.864;21.410;2023-06-10T08:15:33;8.52;;;6.70;;
80481;SDS011;69797;43.864;21.410;2023-06-10T08:17:59;7.28;;;6.65;;
80481;SDS011;69797;43.864;21.410;2023-06-10T08:20:26;7.63;;;6.93;;
80481;SDS011;69797;43.864;21.410;2023-06-10T08:22:53;8.68;;;7.90;;
80481;SDS011;69797;43.864;21.410;2023-06-10T08:25:21;7.80;;;7.10;;
80481;SDS011;69797;43.864;21.410;2023-06-10T08:27:48;7.88;;;7.18;;
80481;SDS011;69797;43.864;21.410;2023-06-10T08:30:22;8.52;;;7.85;;
80481;SDS011;69797;43.864;21.410;2023-06-10T08:32:49;8.63;;;7.80;;
80481;SDS011;69797;43.864;21.410;2023-06-10T08:35:16;8.20;;;7.50;;
80481;SDS011;69797;43.864;21.410;2023-06-10T08:37:43;8.45;;;7.82;;
80481;SDS011;69797;43.864;21.410;2023-06-10T08:40:10;8.45;;;7.75;;
80481;SDS011;69797;43.864;21.410;2023-06-10T08:42:43;6.15;;;5.32;;
80481;SDS011;69797;43.864;21.410;2023-06-10T08:45:30;7.00;;;6.40;;
80481;SDS011;69797;43.864;21.410;2023-06-10T08:47:58;6.93;;;6.32;;
80481;SDS011;69797;43.864;21.410;2023-06-10T08:50:26;7.35;;;5.40;;
80481;SDS011;69797;43.864;21.410;2023-06-10T08:52:58;6.28;;;5.38;;
80481;SDS011;69797;43.864;21.410;2023-06-10T08:55:32;5.35;;;4.40;;
80481;SDS011;69797;43.864;21.410;2023-06-10T08:58:02;6.67;;;4.97;;
80481;SDS011;69797;43.864;21.410;2023-06-10T09:00:30;5.53;;;4.43;;
80481;SDS011;69797;43.864;21.410;2023-06-10T09:02:58;8.52;;;5.00;;
80481;SDS011;69797;43.864;21.410;2023-06-10T09:05:31;8.65;;;5.03;;
80481;SDS011;69797;43.864;21.410;2023-06-10T09:08:01;7.75;;;5.88;;
80481;SDS011;69797;43.864;21.410;2023-06-10T09:10:28;7.63;;;6.90;;
80481;SDS011;69797;43.864;21.410;2023-06-10T09:12:58;9.35;;;8.05;;
80481;SDS011;69797;43.864;21.410;2023-06-10T09:15:25;7.63;;;5.78;;
80481;SDS011;69797;43.864;21.410;2023-06-10T09:17:53;7.18;;;5.28;;
80481;SDS011;69797;43.864;21.410;2023-06-10T09:20:20;7.70;;;5.18;;
80481;SDS011;69797;43.864;21.410;2023-06-10T09:22:46;6.70;;;5.17;;
80481;SDS011;69797;43.864;21.410;2023-06-10T09:25:13;8.93;;;5.15;;
80481;SDS011;69797;43.864;21.410;2023-06-10T09:27:44;6.13;;;5.18;;
80481;SDS011;69797;43.864;21.410;2023-06-10T09:30:32;6.70;;;4.90;;
80481;SDS011;69797;43.864;21.410;2023-06-10T09:33:00;7.20;;;4.40;;
80481;SDS011;69797;43.864;21.410;2023-06-10T09:35:30;5.20;;;4.00;;
80481;SDS011;69797;43.864;21.410;2023-06-10T09:37:59;9.05;;;3.97;;
80481;SDS011;69797;43.864;21.410;2023-06-10T09:40:28;6.93;;;4.38;;
80481;SDS011;69797;43.864;21.410;2023-06-10T09:45:23;6.70;;;4.25;;
80481;SDS011;69797;43.864;21.410;2023-06-10T09:47:53;6.87;;;4.50;;
80481;SDS011;69797;43.864;21.410;2023-06-10T09:50:20;8.15;;;4.35;;
80481;SDS011;69797;43.864;21.410;2023-06-10T09:52:47;5.70;;;4.20;;
80481;SDS011;69797;43.864;21.410;2023-06-10T09:55:14;6.45;;;4.13;;
80481;SDS011;69797;43.864;21.410;2023-06-10T09:57:42;7.38;;;4.80;;
80481;SDS011;69797;43.864;21.410;2023-06-10T10:00:12;5.53;;;4.27;;
80481;SDS011;69797;43.864;21.410;2023-06-10T10:02:49;6.57;;;4.32;;
80481;SDS011;69797;43.864;21.410;2023-06-10T10:05:21;8.63;;;4.88;;
80481;SDS011;69797;43.864;21.410;2023-06-10T10:07:49;6.97;;;3.95;;
80481;SDS011;69797;43.864;21.410;2023-06-10T10:10:18;7.22;;;4.63;;
80481;SDS011;69797;43.864;21.410;2023-06-10T10:12:47;8.20;;;4.40;;
80481;SDS011;69797;43.864;21.410;2023-06-10T10:15:16;7.72;;;4.88;;
80481;SDS011;69797;43.864;21.410;2023-06-10T10:17:56;9.02;;;4.30;;
80481;SDS011;69797;43.864;21.410;2023-06-10T10:20:31;11.20;;;5.40;;
80481;SDS011;69797;43.864;21.410;2023-06-10T10:23:02;9.80;;;5.15;;
80481;SDS011;69797;43.864;21.410;2023-06-10T10:25:49;7.00;;;5.30;;
80481;SDS011;69797;43.864;21.410;2023-06-10T10:28:20;6.18;;;4.60;;
80481;SDS011;69797;43.864;21.410;2023-06-10T10:30:54;6.10;;;5.28;;
80481;SDS011;69797;43.864;21.410;2023-06-10T10:33:28;7.55;;;5.00;;
80481;SDS011;69797;43.864;21.410;2023-06-10T10:36:15;6.85;;;5.53;;
80481;SDS011;69797;43.864;21.410;2023-06-10T10:38:42;5.90;;;4.40;;
80481;SDS011;69797;43.864;21.410;2023-06-10T10:41:11;6.38;;;4.68;;
80481;SDS011;69797;43.864;21.410;2023-06-10T10:43:38;6.05;;;4.63;;
80481;SDS011;69797;43.864;21.410;2023-06-10T10:46:08;6.00;;;3.97;;
80481;SDS011;69797;43.864;21.410;2023-06-10T10:48:39;8.10;;;5.38;;
80481;SDS011;69797;43.864;21.410;2023-06-10T10:51:12;8.17;;;5.10;;
80481;SDS011;69797;43.864;21.410;2023-06-10T10:53:42;7.82;;;5.03;;
80481;SDS011;69797;43.864;21.410;2023-06-10T10:56:15;7.10;;;5.53;;
80481;SDS011;69797;43.864;21.410;2023-06-10T10:59:03;7.30;;;5.22;;
80481;SDS011;69797;43.864;21.410;2023-06-10T11:01:44;6.95;;;5.07;;
80481;SDS011;69797;43.864;21.410;2023-06-10T11:04:17;8.13;;;4.80;;
80481;SDS011;69797;43.864;21.410;2023-06-10T11:06:53;6.20;;;5.07;;
80481;SDS011;69797;43.864;21.410;2023-06-10T11:09:26;8.68;;;5.50;;
80481;SDS011;69797;43.864;21.410;2023-06-10T11:11:57;6.70;;;5.18;;
80481;SDS011;69797;43.864;21.410;2023-06-10T11:14:28;6.90;;;4.28;;
80481;SDS011;69797;43.864;21.410;2023-06-10T11:16:57;8.50;;;5.50;;
80481;SDS011;69797;43.864;21.410;2023-06-10T11:19:32;7.72;;;4.78;;
80481;SDS011;69797;43.864;21.410;2023-06-10T11:22:05;6.10;;;4.63;;
80481;SDS011;69797;43.864;21.410;2023-06-10T11:24:33;7.20;;;4.68;;
80481;SDS011;69797;43.864;21.410;2023-06-10T11:32:30;5.03;;;3.83;;
80481;SDS011;69797;43.864;21.410;2023-06-10T11:35:04;7.40;;;4.10;;
80481;SDS011;69797;43.864;21.410;2023-06-10T11:37:31;5.65;;;3.80;;
80481;SDS011;69797;43.864;21.410;2023-06-10T11:39:59;6.68;;;4.15;;
80481;SDS011;69797;43.864;21.410;2023-06-10T11:42:26;6.07;;;4.20;;
80481;SDS011;69797;43.864;21.410;2023-06-10T11:44:53;6.28;;;4.43;;
80481;SDS011;69797;43.864;21.410;2023-06-10T11:47:21;6.97;;;4.35;;
80481;SDS011;69797;43.864;21.410;2023-06-10T11:49:57;8.10;;;5.05;;
80481;SDS011;69797;43.864;21.410;2023-06-10T11:52:31;7.57;;;4.03;;
80481;SDS011;69797;43.864;21.410;2023-06-10T11:55:00;6.87;;;3.60;;
80481;SDS011;69797;43.864;21.410;2023-06-10T11:57:27;6.65;;;4.20;;
80481;SDS011;69797;43.864;21.410;2023-06-10T11:59:53;10.00;;;3.70;;
80481;SDS011;69797;43.864;21.410;2023-06-10T12:02:20;5.75;;;3.20;;
80481;SDS011;69797;43.864;21.410;2023-06-10T12:04:48;5.30;;;3.75;;
80481;SDS011;69797;43.864;21.410;2023-06-10T12:07:18;4.27;;;3.30;;
80481;SDS011;69797;43.864;21.410;2023-06-10T12:09:58;6.10;;;3.45;;
80481;SDS011;69797;43.864;21.410;2023-06-10T12:12:37;4.35;;;3.00;;
80481;SDS011;69797;43.864;21.410;2023-06-10T12:15:04;3.97;;;2.75;;
80481;SDS011;69797;43.864;21.410;2023-06-10T12:17:35;6.93;;;2.65;;
80481;SDS011;69797;43.864;21.410;2023-06-10T12:20:08;4.27;;;2.50;;
80481;SDS011;69797;43.864;21.410;2023-06-10T12:22:52;4.30;;;2.88;;
80481;SDS011;69797;43.864;21.410;2023-06-10T12:25:24;3.67;;;2.38;;
80481;SDS011;69797;43.864;21.410;2023-06-10T12:27:56;4.00;;;2.85;;
80481;SDS011;69797;43.864;21.410;2023-06-10T12:30:27;5.20;;;2.60;;
80481;SDS011;69797;43.864;21.410;2023-06-10T12:32:54;5.33;;;2.93;;
80481;SDS011;69797;43.864;21.410;2023-06-10T12:35:27;4.80;;;2.72;;
80481;SDS011;69797;43.864;21.410;2023-06-10T12:38:01;4.18;;;2.75;;
80481;SDS011;69797;43.864;21.410;2023-06-10T12:40:34;6.70;;;2.80;;
80481;SDS011;69797;43.864;21.410;2023-06-10T12:43:06;5.78;;;3.05;;
80481;SDS011;69797;43.864;21.410;2023-06-10T12:45:34;5.97;;;3.03;;
80481;SDS011;69797;43.864;21.410;2023-06-10T12:48:08;6.13;;;2.92;;
80481;SDS011;69797;43.864;21.410;2023-06-10T12:50:37;3.95;;;3.20;;
80481;SDS011;69797;43.864;21.410;2023-06-10T12:53:08;5.15;;;2.97;;
80481;SDS011;69797;43.864;21.410;2023-06-10T12:55:41;4.65;;;2.92;;
80481;SDS011;69797;43.864;21.410;2023-06-10T12:58:07;5.67;;;3.00;;
80481;SDS011;69797;43.864;21.410;2023-06-10T13:00:37;6.22;;;4.22;;
80481;SDS011;69797;43.864;21.410;2023-06-10T13:03:04;5.97;;;3.40;;
80481;SDS011;69797;43.864;21.410;2023-06-10T13:05:32;5.30;;;3.17;;
80481;SDS011;69797;43.864;21.410;2023-06-10T13:08:00;4.90;;;3.30;;
80481;SDS011;69797;43.864;21.410;2023-06-10T13:10:33;6.10;;;3.87;;
80481;SDS011;69797;43.864;21.410;2023-06-10T13:13:00;5.93;;;3.65;;
80481;SDS011;69797;43.864;21.410;2023-06-10T13:15:28;5.30;;;3.30;;
80481;SDS011;69797;43.864;21.410;2023-06-10T13:17:57;7.15;;;3.65;;
80481;SDS011;69797;43.864;21.410;2023-06-10T13:20:24;5.22;;;3.80;;
80481;SDS011;69797;43.864;21.410;2023-06-10T13:22:51;4.97;;;3.40;;
80481;SDS011;69797;43.864;21.410;2023-06-10T13:25:17;5.35;;;3.60;;
80481;SDS011;69797;43.864;21.410;2023-06-10T13:27:44;4.50;;;3.15;;
80481;SDS011;69797;43.864;21.410;2023-06-10T13:30:16;6.28;;;3.70;;
80481;SDS011;69797;43.864;21.410;2023-06-10T13:32:43;5.45;;;3.75;;
80481;SDS011;69797;43.864;21.410;2023-06-10T13:35:10;5.73;;;3.50;;
80481;SDS011;69797;43.864;21.410;2023-06-10T13:37:39;4.88;;;3.22;;
80481;SDS011;69797;43.864;21.410;2023-06-10T13:40:07;6.30;;;3.58;;
80481;SDS011;69797;43.864;21.410;2023-06-10T13:42:36;7.30;;;4.40;;
80481;SDS011;69797;43.864;21.410;2023-06-10T13:45:03;5.60;;;3.90;;
80481;SDS011;69797;43.864;21.410;2023-06-10T13:47:32;5.70;;;4.20;;
80481;SDS011;69797;43.864;21.410;2023-06-10T13:49:59;5.70;;;4.13;;
80481;SDS011;69797;43.864;21.410;2023-06-10T13:52:26;6.22;;;3.92;;
80481;SDS011;69797;43.864;21.410;2023-06-10T13:54:54;5.60;;;3.97;;
80481;SDS011;69797;43.864;21.410;2023-06-10T13:57:21;7.65;;;4.68;;
80481;SDS011;69797;43.864;21.410;2023-06-10T13:59:48;10.97;;;5.23;;
80481;SDS011;69797;43.864;21.410;2023-06-10T14:02:15;7.32;;;3.78;;
80481;SDS011;69797;43.864;21.410;2023-06-10T14:04:41;9.13;;;4.60;;
80481;SDS011;69797;43.864;21.410;2023-06-10T14:07:08;7.03;;;3.80;;
80481;SDS011;69797;43.864;21.410;2023-06-10T14:09:35;7.93;;;4.07;;
80481;SDS011;69797;43.864;21.410;2023-06-10T14:12:02;5.60;;;3.70;;
80481;SDS011;69797;43.864;21.410;2023-06-10T14:14:29;6.03;;;3.72;;
80481;SDS011;69797;43.864;21.410;2023-06-10T14:16:57;5.70;;;4.05;;
80481;SDS011;69797;43.864;21.410;2023-06-10T14:19:27;5.80;;;4.07;;
80481;SDS011;69797;43.864;21.410;2023-06-10T14:21:54;5.97;;;4.53;;
80481;SDS011;69797;43.864;21.410;2023-06-10T14:24:21;5.80;;;4.53;;
80481;SDS011;69797;43.864;21.410;2023-06-10T14:26:49;6.85;;;4.63;;
80481;SDS011;69797;43.864;21.410;2023-06-10T14:29:15;6.47;;;4.53;;
80481;SDS011;69797;43.864;21.410;2023-06-10T14:31:43;6.13;;;3.75;;
80481;SDS011;69797;43.864;21.410;2023-06-10T14:34:10;5.53;;;3.83;;
80481;SDS011;69797;43.864;21.410;2023-06-10T14:36:36;7.20;;;4.73;;
80481;SDS011;69797;43.864;21.410;2023-06-10T14:39:03;6.68;;;4.13;;
80481;SDS011;69797;43.864;21.410;2023-06-10T14:41:30;6.47;;;4.47;;
80481;SDS011;69797;43.864;21.410;2023-06-10T14:43:57;5.95;;;4.55;;
80481;SDS011;69797;43.864;21.410;2023-06-10T14:46:24;6.68;;;4.53;;
80481;SDS011;69797;43.864;21.410;2023-06-10T14:48:51;5.63;;;3.93;;
80481;SDS011;69797;43.864;21.410;2023-06-10T14:51:18;7.90;;;4.03;;